sensor_id;sensor_type;location;lat;lon;timestamp;pressure;altitude;pressure_sealevel;temperature;humidity
60319;BME280;46163;52.306;5.634;2022-07-10T00:02:13;102632.75;;;22.50;56.65
60319;BME280;46163;52.306;5.634;2022-07-10T00:04:39;102629.91;;;22.45;56.88
60319;BME280;46163;52.306;5.634;2022-07-10T00:07:04;102618.25;;;22.45;56.94
60319;BME280;46163;52.306;5.634;2022-07-10T00:09:31;102616.22;;;22.40;56.70
60319;BME280;46163;52.306;5.634;2022-07-10T00:11:57;102625.06;;;22.47;56.51
60319;BME280;46163;52.306;5.634;2022-07-10T00:14:22;102622.84;;;22.44;56.43
60319;BME280;46163;52.306;5.634;2022-07-10T00:16:48;102620.00;;;22.39;56.77
60319;BME280;46163;52.306;5.634;2022-07-10T00:19:13;102620.59;;;22.41;56.98
60319;BME280;46163;52.306;5.634;2022-07-10T00:21:39;102598.31;;;22.27;56.62
60319;BME280;46163;52.306;5.634;2022-07-10T00:24:04;102632.28;;;22.42;56.76
60319;BME280;46163;52.306;5.634;2022-07-10T00:26:30;102611.63;;;22.29;57.08
60319;BME280;46163;52.306;5.634;2022-07-10T00:28:55;102631.44;;;22.41;56.47
60319;BME280;46163;52.306;5.634;2022-07-10T00:31:21;102631.91;;;22.38;56.61
60319;BME280;46163;52.306;5.634;2022-07-10T00:33:46;102625.09;;;22.36;56.74
60319;BME280;46163;52.306;5.634;2022-07-10T00:36:13;102606.09;;;22.24;56.67
60319;BME280;46163;52.306;5.634;2022-07-10T00:38:38;102625.09;;;22.36;56.54
60319;BME280;46163;52.306;5.634;2022-07-10T00:41:04;102629.22;;;22.38;56.40
60319;BME280;46163;52.306;5.634;2022-07-10T00:43:29;102608.47;;;22.20;56.42
60319;BME280;46163;52.306;5.634;2022-07-10T00:45:55;102600.91;;;22.22;56.99
60319;BME280;46163;52.306;5.634;2022-07-10T00:48:20;102614.69;;;22.33;56.89
60319;BME280;46163;52.306;5.634;2022-07-10T00:50:45;102583.09;;;22.15;56.92
60319;BME280;46163;52.306;5.634;2022-07-10T00:53:12;102588.66;;;22.20;56.66
60319;BME280;46163;52.306;5.634;2022-07-10T00:55:39;102611.78;;;22.34;56.43
60319;BME280;46163;52.306;5.634;2022-07-10T00:58:10;102600.22;;;22.27;56.92
60319;BME280;46163;52.306;5.634;2022-07-10T01:00:36;102610.13;;;22.33;56.41
60319;BME280;46163;52.306;5.634;2022-07-10T01:03:04;102606.81;;;22.31;56.48
60319;BME280;46163;52.306;5.634;2022-07-10T01:05:30;102599.16;;;22.28;56.28
60319;BME280;46163;52.306;5.634;2022-07-10T01:07:55;102575.81;;;22.15;56.82
60319;BME280;46163;52.306;5.634;2022-07-10T01:10:20;102566.72;;;22.10;56.67
60319;BME280;46163;52.306;5.634;2022-07-10T01:12:46;102581.81;;;22.17;56.61
60319;BME280;46163;52.306;5.634;2022-07-10T01:15:11;102588.53;;;22.26;56.34
60319;BME280;46163;52.306;5.634;2022-07-10T01:17:37;102592.91;;;22.27;56.49
60319;BME280;46163;52.306;5.634;2022-07-10T01:20:07;102587.09;;;22.24;56.25
60319;BME280;46163;52.306;5.634;2022-07-10T01:22:33;102592.75;;;22.22;56.64
60319;BME280;46163;52.306;5.634;2022-07-10T01:24:59;102576.97;;;22.19;56.58
60319;BME280;46163;52.306;5.634;2022-07-10T01:27:24;102556.69;;;22.10;56.67
60319;BME280;46163;52.306;5.634;2022-07-10T01:29:50;102583.56;;;22.23;56.86
60319;BME280;46163;52.306;5.634;2022-07-10T01:32:17;102575.34;;;22.18;56.51
60319;BME280;46163;52.306;5.634;2022-07-10T01:34:42;102579.94;;;22.18;56.86
60319;BME280;46163;52.306;5.634;2022-07-10T01:37:08;102558.19;;;22.06;56.85
60319;BME280;46163;52.306;5.634;2022-07-10T01:39:33;102575.34;;;22.18;56.64
60319;BME280;46163;52.306;5.634;2022-07-10T01:41:59;102576.16;;;22.19;56.47
60319;BME280;46163;52.306;5.634;2022-07-10T01:44:24;102562.38;;;22.09;56.67
60319;BME280;46163;52.306;5.634;2022-07-10T01:46:49;102549.22;;;22.06;56.54
60319;BME280;46163;52.306;5.634;2022-07-10T01:49:15;102560.00;;;22.12;56.67
60319;BME280;46163;52.306;5.634;2022-07-10T01:51:40;102564.59;;;22.12;56.62
60319;BME280;46163;52.306;5.634;2022-07-10T01:54:07;102537.72;;;21.98;56.46
60319;BME280;46163;52.306;5.634;2022-07-10T01:56:32;102567.88;;;22.14;56.75
60319;BME280;46163;52.306;5.634;2022-07-10T01:58:58;102560.81;;;22.13;57.05
60319;BME280;46163;52.306;5.634;2022-07-10T02:01:25;102551.28;;;22.10;56.69
60319;BME280;46163;52.306;5.634;2022-07-10T02:03:50;102554.25;;;22.09;56.49
60319;BME280;46163;52.306;5.634;2022-07-10T02:06:34;102556.13;;;22.08;56.95
60319;BME280;46163;52.306;5.634;2022-07-10T02:08:59;102549.41;;;22.11;56.44
60319;BME280;46163;52.306;5.634;2022-07-10T02:11:25;102537.97;;;22.09;56.47
60319;BME280;46163;52.306;5.634;2022-07-10T02:13:50;102548.56;;;22.10;56.80
60319;BME280;46163;52.306;5.634;2022-07-10T02:16:16;102538.88;;;22.02;56.87
60319;BME280;46163;52.306;5.634;2022-07-10T02:18:41;102547.75;;;22.10;56.68
60319;BME280;46163;52.306;5.634;2022-07-10T02:21:06;102543.63;;;22.07;56.36
60319;BME280;46163;52.306;5.634;2022-07-10T02:23:32;102537.22;;;22.01;56.62
60319;BME280;46163;52.306;5.634;2022-07-10T02:25:59;102514.13;;;21.87;56.54
60319;BME280;46163;52.306;5.634;2022-07-10T02:28:24;102539.34;;;21.99;56.90
60319;BME280;46163;52.306;5.634;2022-07-10T02:30:49;102535.56;;;22.00;56.82
60319;BME280;46163;52.306;5.634;2022-07-10T02:33:15;102541.34;;;22.04;56.98
60319;BME280;46163;52.306;5.634;2022-07-10T02:35:40;102532.88;;;22.00;56.71
60319;BME280;46163;52.306;5.634;2022-07-10T02:38:05;102534.50;;;22.01;56.32
60319;BME280;46163;52.306;5.634;2022-07-10T02:40:31;102536.16;;;22.02;56.83
60319;BME280;46163;52.306;5.634;2022-07-10T02:42:56;102534.50;;;22.01;56.74
60319;BME280;46163;52.306;5.634;2022-07-10T02:45:21;102503.88;;;21.89;56.36
60319;BME280;46163;52.306;5.634;2022-07-10T02:47:47;102529.09;;;22.01;56.33
60319;BME280;46163;52.306;5.634;2022-07-10T02:50:12;102528.50;;;21.99;56.66
60319;BME280;46163;52.306;5.634;2022-07-10T02:52:38;102519.66;;;21.92;56.82
60319;BME280;46163;52.306;5.634;2022-07-10T02:55:03;102514.13;;;21.87;56.63
60319;BME280;46163;52.306;5.634;2022-07-10T02:57:29;102526.88;;;21.98;56.79
60319;BME280;46163;52.306;5.634;2022-07-10T02:59:54;102526.88;;;21.98;56.24
60319;BME280;46163;52.306;5.634;2022-07-10T03:02:20;102512.72;;;21.85;56.82
60319;BME280;46163;52.306;5.634;2022-07-10T03:04:45;102524.03;;;21.93;56.62
60319;BME280;46163;52.306;5.634;2022-07-10T03:07:10;102528.13;;;21.96;56.31
60319;BME280;46163;52.306;5.634;2022-07-10T03:09:36;102532.16;;;21.93;56.50
60319;BME280;46163;52.306;5.634;2022-07-10T03:12:01;102530.50;;;21.92;56.78
60319;BME280;46163;52.306;5.634;2022-07-10T03:14:27;102533.22;;;21.92;56.83
60319;BME280;46163;52.306;5.634;2022-07-10T03:16:52;102508.22;;;21.79;56.42
60319;BME280;46163;52.306;5.634;2022-07-10T03:19:17;102542.66;;;21.90;56.66
60319;BME280;46163;52.306;5.634;2022-07-10T03:21:43;102539.13;;;21.89;56.83
60319;BME280;46163;52.306;5.634;2022-07-10T03:24:09;102522.25;;;21.76;56.76
60319;BME280;46163;52.306;5.634;2022-07-10T03:26:35;102516.81;;;21.76;56.59
60319;BME280;46163;52.306;5.634;2022-07-10T03:29:00;102528.72;;;21.86;56.83
60319;BME280;46163;52.306;5.634;2022-07-10T03:31:25;102524.63;;;21.84;56.53
60319;BME280;46163;52.306;5.634;2022-07-10T03:33:51;102523.66;;;21.78;56.69
60319;BME280;46163;52.306;5.634;2022-07-10T03:36:18;102533.09;;;21.87;56.54
60319;BME280;46163;52.306;5.634;2022-07-10T03:38:43;102531.44;;;21.86;56.60
60319;BME280;46163;52.306;5.634;2022-07-10T03:41:11;102494.69;;;21.67;56.76
60319;BME280;46163;52.306;5.634;2022-07-10T03:43:36;102513.88;;;21.77;56.64
60319;BME280;46163;52.306;5.634;2022-07-10T03:46:01;102526.25;;;21.85;56.83
60319;BME280;46163;52.306;5.634;2022-07-10T03:48:27;102513.63;;;21.79;56.80
60319;BME280;46163;52.306;5.634;2022-07-10T03:50:52;102497.16;;;21.68;56.51
60319;BME280;46163;52.306;5.634;2022-07-10T03:53:18;102493.63;;;21.68;56.73
60319;BME280;46163;52.306;5.634;2022-07-10T03:55:44;102514.94;;;21.76;56.48
60319;BME280;46163;52.306;5.634;2022-07-10T03:58:09;102528.00;;;21.79;56.85
60319;BME280;46163;52.306;5.634;2022-07-10T04:00:35;102521.44;;;21.75;56.87
60319;BME280;46163;52.306;5.634;2022-07-10T04:03:06;102499.50;;;21.65;56.70
60319;BME280;46163;52.306;5.634;2022-07-10T04:05:32;102517.31;;;21.72;56.87
60319;BME280;46163;52.306;5.634;2022-07-10T04:08:00;102525.53;;;21.78;56.64
60319;BME280;46163;52.306;5.634;2022-07-10T04:10:26;102526.84;;;21.75;56.84
60319;BME280;46163;52.306;5.634;2022-07-10T04:12:52;102532.03;;;21.77;56.72
60319;BME280;46163;52.306;5.634;2022-07-10T04:15:18;102531.19;;;21.76;56.87
60319;BME280;46163;52.306;5.634;2022-07-10T04:17:47;102506.91;;;21.69;56.90
60319;BME280;46163;52.306;5.634;2022-07-10T04:20:13;102518.13;;;21.73;56.97
60319;BME280;46163;52.306;5.634;2022-07-10T04:22:39;102527.91;;;21.74;56.75
60319;BME280;46163;52.306;5.634;2022-07-10T04:25:05;102522.50;;;21.74;56.94
60319;BME280;46163;52.306;5.634;2022-07-10T04:27:31;102517.53;;;21.71;56.60
60319;BME280;46163;52.306;5.634;2022-07-10T04:29:56;102508.56;;;21.70;56.89
60319;BME280;46163;52.306;5.634;2022-07-10T04:32:22;102504.59;;;21.73;56.37
60319;BME280;46163;52.306;5.634;2022-07-10T04:34:47;102507.75;;;21.70;56.78
60319;BME280;46163;52.306;5.634;2022-07-10T04:37:13;102496.81;;;21.65;56.53
60319;BME280;46163;52.306;5.634;2022-07-10T04:39:38;102514.81;;;21.71;56.80
60319;BME280;46163;52.306;5.634;2022-07-10T04:42:07;102508.47;;;21.65;56.58
60319;BME280;46163;52.306;5.634;2022-07-10T04:44:34;102509.28;;;21.66;56.63
60319;BME280;46163;52.306;5.634;2022-07-10T04:47:00;102513.16;;;21.70;56.65
60319;BME280;46163;52.306;5.634;2022-07-10T04:49:26;102492.78;;;21.56;56.83
60319;BME280;46163;52.306;5.634;2022-07-10T04:51:51;102491.72;;;21.57;56.31
60319;BME280;46163;52.306;5.634;2022-07-10T04:54:17;102491.72;;;21.57;56.42
60319;BME280;46163;52.306;5.634;2022-07-10T04:56:42;102521.28;;;21.70;56.44
60319;BME280;46163;52.306;5.634;2022-07-10T04:59:08;102506.19;;;21.62;56.33
60319;BME280;46163;52.306;5.634;2022-07-10T05:01:34;102496.56;;;21.55;56.84
60319;BME280;46163;52.306;5.634;2022-07-10T05:03:59;102519.88;;;21.67;56.24
60319;BME280;46163;52.306;5.634;2022-07-10T05:06:25;102516.00;;;21.63;56.40
60319;BME280;46163;52.306;5.634;2022-07-10T05:08:50;102525.06;;;21.69;56.38
60319;BME280;46163;52.306;5.634;2022-07-10T05:11:16;102514.47;;;21.56;56.47
60319;BME280;46163;52.306;5.634;2022-07-10T05:13:41;102505.59;;;21.49;56.51
60319;BME280;46163;52.306;5.634;2022-07-10T05:16:10;102503.47;;;21.51;56.64
60319;BME280;46163;52.306;5.634;2022-07-10T05:18:36;102535.56;;;21.65;56.59
60319;BME280;46163;52.306;5.634;2022-07-10T05:21:01;102532.03;;;21.65;56.60
60319;BME280;46163;52.306;5.634;2022-07-10T05:23:26;102531.53;;;21.68;56.71
60319;BME280;46163;52.306;5.634;2022-07-10T05:25:52;102518.22;;;21.55;56.78
60319;BME280;46163;52.306;5.634;2022-07-10T05:28:17;102532.59;;;21.67;56.38
60319;BME280;46163;52.306;5.634;2022-07-10T05:30:43;102514.09;;;21.52;56.56
60319;BME280;46163;52.306;5.634;2022-07-10T05:33:08;102517.50;;;21.59;56.30
60319;BME280;46163;52.306;5.634;2022-07-10T05:35:34;102528.94;;;21.61;56.58
60319;BME280;46163;52.306;5.634;2022-07-10T05:37:59;102525.41;;;21.61;56.40
60319;BME280;46163;52.306;5.634;2022-07-10T05:40:25;102539.78;;;21.61;56.51
60319;BME280;46163;52.306;5.634;2022-07-10T05:42:50;102513.16;;;21.47;56.56
60319;BME280;46163;52.306;5.634;2022-07-10T05:45:18;102520.81;;;21.50;56.62
60319;BME280;46163;52.306;5.634;2022-07-10T05:47:44;102530.72;;;21.56;56.46
60319;BME280;46163;52.306;5.634;2022-07-10T05:50:10;102492.75;;;21.32;56.54
60319;BME280;46163;52.306;5.634;2022-07-10T05:52:36;102507.84;;;21.40;56.65
60319;BME280;46163;52.306;5.634;2022-07-10T05:55:03;102536.13;;;21.56;56.81
60319;BME280;46163;52.306;5.634;2022-07-10T05:57:29;102512.78;;;21.43;56.72
60319;BME280;46163;52.306;5.634;2022-07-10T05:59:55;102517.59;;;21.41;56.84
60319;BME280;46163;52.306;5.634;2022-07-10T06:02:20;102546.97;;;21.56;56.81
60319;BME280;46163;52.306;5.634;2022-07-10T06:04:46;102538.03;;;21.55;56.89
60319;BME280;46163;52.306;5.634;2022-07-10T06:07:12;102512.03;;;21.36;56.75
60319;BME280;46163;52.306;5.634;2022-07-10T06:09:37;102524.09;;;21.40;56.58
60319;BME280;46163;52.306;5.634;2022-07-10T06:12:03;102538.22;;;21.54;56.82
60319;BME280;46163;52.306;5.634;2022-07-10T06:14:28;102531.97;;;21.53;56.88
60319;BME280;46163;52.306;5.634;2022-07-10T06:16:53;102535.50;;;21.54;56.54
60319;BME280;46163;52.306;5.634;2022-07-10T06:19:19;102523.84;;;21.41;56.70
60319;BME280;46163;52.306;5.634;2022-07-10T06:21:44;102508.75;;;21.34;56.44
60319;BME280;46163;52.306;5.634;2022-07-10T06:24:10;102508.50;;;21.35;56.83
60319;BME280;46163;52.306;5.634;2022-07-10T06:26:35;102531.16;;;21.53;56.56
60319;BME280;46163;52.306;5.634;2022-07-10T06:29:01;102531.88;;;21.48;56.52
60319;BME280;46163;52.306;5.634;2022-07-10T06:31:27;102530.44;;;21.45;56.36
60319;BME280;46163;52.306;5.634;2022-07-10T06:33:53;102543.06;;;21.52;56.72
60319;BME280;46163;52.306;5.634;2022-07-10T06:36:19;102537.63;;;21.52;56.61
60319;BME280;46163;52.306;5.634;2022-07-10T06:38:44;102525.97;;;21.39;56.64
60319;BME280;46163;52.306;5.634;2022-07-10T06:41:09;102540.34;;;21.52;56.72
60319;BME280;46163;52.306;5.634;2022-07-10T06:43:35;102510.88;;;21.32;56.49
60319;BME280;46163;52.306;5.634;2022-07-10T06:46:00;102536.47;;;21.48;56.76
60319;BME280;46163;52.306;5.634;2022-07-10T06:48:26;102514.06;;;21.29;56.40
60319;BME280;46163;52.306;5.634;2022-07-10T06:50:52;102525.00;;;21.34;56.72
60319;BME280;46163;52.306;5.634;2022-07-10T06:53:18;102540.22;;;21.47;56.55
60319;BME280;46163;52.306;5.634;2022-07-10T06:55:50;102522.06;;;21.35;56.73
60319;BME280;46163;52.306;5.634;2022-07-10T06:58:15;102520.41;;;21.34;56.60
60319;BME280;46163;52.306;5.634;2022-07-10T07:00:40;102543.16;;;21.45;56.43
60319;BME280;46163;52.306;5.634;2022-07-10T07:03:06;102539.75;;;21.50;56.67
60319;BME280;46163;52.306;5.634;2022-07-10T07:05:31;102540.00;;;21.48;56.71
60319;BME280;46163;52.306;5.634;2022-07-10T07:07:57;102516.88;;;21.34;56.65
60319;BME280;46163;52.306;5.634;2022-07-10T07:10:22;102537.28;;;21.48;56.60
60319;BME280;46163;52.306;5.634;2022-07-10T07:12:47;102539.75;;;21.50;56.51
60319;BME280;46163;52.306;5.634;2022-07-10T07:15:13;102540.81;;;21.49;56.43
60319;BME280;46163;52.306;5.634;2022-07-10T07:17:41;102526.69;;;21.47;56.63
60319;BME280;46163;52.306;5.634;2022-07-10T07:20:23;102509.25;;;21.42;56.51
60319;BME280;46163;52.306;5.634;2022-07-10T07:23:07;102534.50;;;21.55;56.45
60319;BME280;46163;52.306;5.634;2022-07-10T07:25:35;102498.75;;;21.34;56.34
60319;BME280;46163;52.306;5.634;2022-07-10T07:28:03;102538.03;;;21.55;56.24
60319;BME280;46163;52.306;5.634;2022-07-10T07:30:29;102510.78;;;21.38;56.19
60319;BME280;46163;52.306;5.634;2022-07-10T07:32:54;102546.34;;;21.54;56.17
60319;BME280;46163;52.306;5.634;2022-07-10T07:35:20;102529.41;;;21.47;56.48
60319;BME280;46163;52.306;5.634;2022-07-10T07:37:50;102531.72;;;21.43;56.55
60319;BME280;46163;52.306;5.634;2022-07-10T07:40:18;102548.03;;;21.55;56.34
60319;BME280;46163;52.306;5.634;2022-07-10T07:42:45;102531.72;;;21.43;56.35
60319;BME280;46163;52.306;5.634;2022-07-10T07:45:11;102547.41;;;21.53;56.43
60319;BME280;46163;52.306;5.634;2022-07-10T07:47:44;102518.91;;;21.38;56.46
60319;BME280;46163;52.306;5.634;2022-07-10T07:50:20;102556.16;;;21.55;56.56
60319;BME280;46163;52.306;5.634;2022-07-10T07:52:47;102525.72;;;21.41;56.35
60319;BME280;46163;52.306;5.634;2022-07-10T07:55:13;102548.25;;;21.53;56.77
60319;BME280;46163;52.306;5.634;2022-07-10T07:57:40;102524.09;;;21.40;56.64
60319;BME280;46163;52.306;5.634;2022-07-10T08:00:06;102536.00;;;21.51;56.88
60319;BME280;46163;52.306;5.634;2022-07-10T08:02:33;102548.38;;;21.58;56.81
60319;BME280;46163;52.306;5.634;2022-07-10T08:05:08;102520.56;;;21.39;56.85
60319;BME280;46163;52.306;5.634;2022-07-10T08:07:36;102542.97;;;21.58;56.80
60319;BME280;46163;52.306;5.634;2022-07-10T08:10:27;102445.78;;;20.97;56.82
60319;BME280;46163;52.306;5.634;2022-07-10T08:13:07;102527.88;;;21.51;56.85
60319;BME280;46163;52.306;5.634;2022-07-10T08:15:33;102519.00;;;21.43;56.99
60319;BME280;46163;52.306;5.634;2022-07-10T08:18:00;102538.38;;;21.59;56.76
60319;BME280;46163;52.306;5.634;2022-07-10T08:27:03;102540.38;;;21.63;56.94
60319;BME280;46163;52.306;5.634;2022-07-10T08:29:28;102538.72;;;21.62;56.49
60319;BME280;46163;52.306;5.634;2022-07-10T08:31:56;102542.84;;;21.65;56.49
60319;BME280;46163;52.306;5.634;2022-07-10T08:34:22;102514.78;;;21.48;56.77
60319;BME280;46163;52.306;5.634;2022-07-10T08:36:48;102538.25;;;21.65;56.49
60319;BME280;46163;52.306;5.634;2022-07-10T08:39:13;102545.34;;;21.66;56.36
60319;BME280;46163;52.306;5.634;2022-07-10T08:41:42;102539.66;;;21.68;56.20
60319;BME280;46163;52.306;5.634;2022-07-10T08:44:08;102517.63;;;21.53;56.68
60319;BME280;46163;52.306;5.634;2022-07-10T08:46:37;102495.09;;;21.40;56.42
60319;BME280;46163;52.306;5.634;2022-07-10T08:49:05;102547.13;;;21.72;56.16
60319;BME280;46163;52.306;5.634;2022-07-10T08:51:40;102516.69;;;21.59;56.25
60319;BME280;46163;52.306;5.634;2022-07-10T08:54:07;102516.44;;;21.60;56.07
60319;BME280;46163;52.306;5.634;2022-07-10T08:56:33;102527.53;;;21.70;56.28
60319;BME280;46163;52.306;5.634;2022-07-10T08:59:01;102542.88;;;21.77;56.19
60319;BME280;46163;52.306;5.634;2022-07-10T09:01:27;102539.09;;;21.78;56.28
60319;BME280;46163;52.306;5.634;2022-07-10T09:03:52;102470.97;;;21.39;55.99
60319;BME280;46163;52.306;5.634;2022-07-10T09:06:18;102539.91;;;21.78;56.02
60319;BME280;46163;52.306;5.634;2022-07-10T09:09:03;102532.50;;;21.85;55.67
60319;BME280;46163;52.306;5.634;2022-07-10T09:11:29;102514.34;;;21.74;56.16
60319;BME280;46163;52.306;5.634;2022-07-10T09:14:03;102533.47;;;21.91;56.10
60319;BME280;46163;52.306;5.634;2022-07-10T09:16:33;102506.81;;;21.76;55.96
60319;BME280;46163;52.306;5.634;2022-07-10T09:19:28;102538.97;;;21.96;55.96
60319;BME280;46163;52.306;5.634;2022-07-10T09:22:05;102498.81;;;21.81;55.43
60319;BME280;46163;52.306;5.634;2022-07-10T09:24:47;102510.81;;;21.85;55.51
60319;BME280;46163;52.306;5.634;2022-07-10T09:27:14;102513.19;;;21.93;55.56
60319;BME280;46163;52.306;5.634;2022-07-10T09:29:51;102522.59;;;22.02;55.29
60319;BME280;46163;52.306;5.634;2022-07-10T09:32:22;102503.41;;;21.92;55.29
60319;BME280;46163;52.306;5.634;2022-07-10T09:34:51;102520.38;;;21.99;55.28
60319;BME280;46163;52.306;5.634;2022-07-10T09:37:36;102524.25;;;22.04;55.25
60319;BME280;46163;52.306;5.634;2022-07-10T09:40:05;102504.22;;;21.93;55.07
60319;BME280;46163;52.306;5.634;2022-07-10T09:42:31;102525.47;;;22.08;55.43
60319;BME280;46163;52.306;5.634;2022-07-10T09:47:34;102510.03;;;22.08;55.38
60319;BME280;46163;52.306;5.634;2022-07-10T09:50:00;102476.16;;;21.87;55.29
60319;BME280;46163;52.306;5.634;2022-07-10T09:52:26;102483.38;;;21.93;54.96
60319;BME280;46163;52.306;5.634;2022-07-10T09:54:52;102506.59;;;22.13;55.06
60319;BME280;46163;52.306;5.634;2022-07-10T09:57:19;102479.72;;;21.99;54.93
60319;BME280;46163;52.306;5.634;2022-07-10T09:59:45;102496.94;;;22.17;55.01
60319;BME280;46163;52.306;5.634;2022-07-10T10:02:11;102483.34;;;22.05;54.78
60319;BME280;46163;52.306;5.634;2022-07-10T10:04:38;102481.94;;;22.02;54.74
60319;BME280;46163;52.306;5.634;2022-07-10T10:07:03;102508.94;;;22.21;55.00
60319;BME280;46163;52.306;5.634;2022-07-10T10:09:34;102476.53;;;22.02;55.26
60319;BME280;46163;52.306;5.634;2022-07-10T10:12:07;102507.78;;;22.17;54.75
60319;BME280;46163;52.306;5.634;2022-07-10T10:14:33;102510.50;;;22.17;54.74
60319;BME280;46163;52.306;5.634;2022-07-10T10:17:00;102479.72;;;21.99;54.99
60319;BME280;46163;52.306;5.634;2022-07-10T10:19:26;102512.72;;;22.20;54.53
60319;BME280;46163;52.306;5.634;2022-07-10T10:22:12;102518.97;;;22.20;54.75
60319;BME280;46163;52.306;5.634;2022-07-10T10:24:39;102512.97;;;22.18;54.97
60319;BME280;46163;52.306;5.634;2022-07-10T10:27:06;102502.22;;;22.12;54.83
60319;BME280;46163;52.306;5.634;2022-07-10T10:29:53;102492.94;;;22.08;54.81
60319;BME280;46163;52.306;5.634;2022-07-10T10:32:19;102506.22;;;22.21;54.50
60319;BME280;46163;52.306;5.634;2022-07-10T10:34:52;102508.13;;;22.20;53.99
60319;BME280;46163;52.306;5.634;2022-07-10T10:37:38;102517.31;;;22.19;54.18
60319;BME280;46163;52.306;5.634;2022-07-10T10:40:33;102516.50;;;22.19;53.78
60319;BME280;46163;52.306;5.634;2022-07-10T10:43:15;102492.78;;;22.02;53.58
60319;BME280;46163;52.306;5.634;2022-07-10T10:45:41;102500.59;;;22.11;53.31
60319;BME280;46163;52.306;5.634;2022-07-10T10:48:09;102507.41;;;22.13;53.58
60319;BME280;46163;52.306;5.634;2022-07-10T10:50:50;102520.50;;;22.16;53.64
60319;BME280;46163;52.306;5.634;2022-07-10T10:53:23;102481.00;;;21.97;53.39
60319;BME280;46163;52.306;5.634;2022-07-10T10:58:45;102503.19;;;22.17;53.42
60319;BME280;46163;52.306;5.634;2022-07-10T11:01:24;102503.75;;;22.19;52.84
60319;BME280;46163;52.306;5.634;2022-07-10T11:10:32;102495.97;;;22.23;53.07
60319;BME280;46163;52.306;5.634;2022-07-10T11:20:40;102468.06;;;22.11;52.60
60319;BME280;46163;52.306;5.634;2022-07-10T11:23:22;102470.06;;;22.15;52.63
60319;BME280;46163;52.306;5.634;2022-07-10T11:26:02;102502.09;;;22.30;52.15
60319;BME280;46163;52.306;5.634;2022-07-10T11:31:12;102473.22;;;22.12;52.18
60319;BME280;46163;52.306;5.634;2022-07-10T11:33:39;102495.75;;;22.24;52.02
60319;BME280;46163;52.306;5.634;2022-07-10T11:36:14;102495.75;;;22.24;52.36
60319;BME280;46163;52.306;5.634;2022-07-10T11:38:43;102499.38;;;22.30;51.98
60319;BME280;46163;52.306;5.634;2022-07-10T11:41:16;102499.88;;;22.27;52.16
60319;BME280;46163;52.306;5.634;2022-07-10T11:43:59;102482.78;;;22.26;51.94
60319;BME280;46163;52.306;5.634;2022-07-10T11:46:26;102496.22;;;22.33;51.88
60319;BME280;46163;52.306;5.634;2022-07-10T11:48:52;102492.44;;;22.34;51.63
60319;BME280;46163;52.306;5.634;2022-07-10T11:51:26;102467.09;;;22.17;51.67
60319;BME280;46163;52.306;5.634;2022-07-10T11:54:03;102444.31;;;22.06;51.65
60319;BME280;46163;52.306;5.634;2022-07-10T11:56:36;102496.22;;;22.33;51.42
60319;BME280;46163;52.306;5.634;2022-07-10T11:59:09;102445.78;;;22.09;51.38
60319;BME280;46163;52.306;5.634;2022-07-10T12:01:49;102493.59;;;22.38;51.49
60319;BME280;46163;52.306;5.634;2022-07-10T12:04:17;102460.72;;;22.23;51.27
60319;BME280;46163;52.306;5.634;2022-07-10T12:06:47;102477.88;;;22.40;51.53
60319;BME280;46163;52.306;5.634;2022-07-10T12:09:14;102476.00;;;22.41;51.20
60319;BME280;46163;52.306;5.634;2022-07-10T12:11:43;102463.16;;;22.36;51.23
60319;BME280;46163;52.306;5.634;2022-07-10T12:14:14;102451.03;;;22.27;51.43
60319;BME280;46163;52.306;5.634;2022-07-10T12:16:43;102475.53;;;22.44;51.18
60319;BME280;46163;52.306;5.634;2022-07-10T12:19:11;102454.78;;;22.38;51.73
60319;BME280;46163;52.306;5.634;2022-07-10T12:21:38;102461.16;;;22.43;51.14
60319;BME280;46163;52.306;5.634;2022-07-10T12:24:04;102470.94;;;22.44;50.88
60319;BME280;46163;52.306;5.634;2022-07-10T12:26:41;102476.34;;;22.44;50.84
60319;BME280;46163;52.306;5.634;2022-07-10T12:29:21;102467.84;;;22.41;50.93
60319;BME280;46163;52.306;5.634;2022-07-10T12:31:49;102453.28;;;22.30;50.83
60319;BME280;46163;52.306;5.634;2022-07-10T12:34:15;102485.91;;;22.47;50.82
60319;BME280;46163;52.306;5.634;2022-07-10T12:39:09;102454.44;;;22.34;50.90
60319;BME280;46163;52.306;5.634;2022-07-10T12:41:35;102441.34;;;22.31;50.71
60319;BME280;46163;52.306;5.634;2022-07-10T12:44:00;102473.72;;;22.49;50.40
60319;BME280;46163;52.306;5.634;2022-07-10T12:46:26;102480.59;;;22.52;50.80
60319;BME280;46163;52.306;5.634;2022-07-10T12:49:04;102478.69;;;22.52;50.91
60319;BME280;46163;52.306;5.634;2022-07-10T12:51:32;102485.50;;;22.55;50.56
60319;BME280;46163;52.306;5.634;2022-07-10T12:53:58;102483.63;;;22.55;50.33
60319;BME280;46163;52.306;5.634;2022-07-10T12:56:28;102444.19;;;22.36;50.49
60319;BME280;46163;52.306;5.634;2022-07-10T12:58:54;102482.31;;;22.58;50.29
60319;BME280;46163;52.306;5.634;2022-07-10T13:01:19;102482.31;;;22.58;50.20
60319;BME280;46163;52.306;5.634;2022-07-10T13:03:45;102481.28;;;22.59;49.78
60319;BME280;46163;52.306;5.634;2022-07-10T13:06:27;102486.69;;;22.59;50.17
60319;BME280;46163;52.306;5.634;2022-07-10T13:08:56;102477.94;;;22.57;49.70
60319;BME280;46163;52.306;5.634;2022-07-10T13:11:34;102473.84;;;22.54;49.96
60319;BME280;46163;52.306;5.634;2022-07-10T13:14:03;102475.59;;;22.61;49.60
60319;BME280;46163;52.306;5.634;2022-07-10T13:16:29;102471.56;;;22.63;49.53
60319;BME280;46163;52.306;5.634;2022-07-10T13:18:55;102464.75;;;22.61;49.97
60319;BME280;46163;52.306;5.634;2022-07-10T13:21:20;102448.94;;;22.57;49.86
60319;BME280;46163;52.306;5.634;2022-07-10T13:23:46;102464.00;;;22.65;49.94
60319;BME280;46163;52.306;5.634;2022-07-10T13:26:13;102440.28;;;22.44;50.01